createdAt,value
2018-12-08T00:00:32.441Z,51.5
2018-12-08T00:01:32.523Z,51.59
2018-12-08T00:02:32.053Z,51.54
2018-12-08T00:03:32.098Z,51.56
2018-12-08T00:04:32.910Z,51.57
2018-12-08T00:05:32.974Z,51.65
2018-12-08T00:06:32.359Z,51.57
2018-12-08T00:07:32.546Z,51.58
2018-12-08T00:08:32.296Z,51.58
2018-12-08T00:09:32.294Z,51.6
2018-12-08T00:10:32.290Z,51.61
2018-12-08T00:11:32.171Z,51.61
2018-12-08T00:12:32.038Z,51.58
2018-12-08T00:13:32.423Z,51.63
2018-12-08T00:14:33.112Z,51.59
2018-12-08T00:15:32.496Z,51.61
2018-12-08T00:16:32.154Z,51.63
2018-12-08T00:17:32.352Z,51.67
2018-12-08T00:18:32.147Z,51.62
2018-12-08T00:19:32.255Z,51.63
2018-12-08T00:20:32.206Z,51.66
2018-12-08T00:21:32.052Z,51.62
2018-12-08T00:22:32.296Z,51.61
2018-12-08T00:23:32.109Z,51.66
2018-12-08T00:24:32.333Z,51.64
2018-12-08T00:25:32.487Z,51.66
2018-12-08T00:26:32.217Z,51.73
2018-12-08T00:27:32.117Z,51.68
2018-12-08T00:28:32.236Z,51.68
2018-12-08T00:29:32.178Z,51.71
2018-12-08T00:30:32.062Z,51.67
2018-12-08T00:31:32.343Z,51.66
2018-12-08T00:32:32.233Z,51.73
2018-12-08T00:33:32.185Z,51.71
2018-12-08T00:34:32.346Z,51.74
2018-12-08T00:35:32.253Z,51.67
2018-12-08T00:36:32.130Z,51.76
2018-12-08T00:37:32.323Z,51.71
2018-12-08T00:38:32.287Z,51.72
2018-12-08T00:39:32.579Z,51.73
2018-12-08T00:40:32.369Z,51.71
2018-12-08T00:41:32.450Z,51.73
2018-12-08T00:42:32.397Z,51.69
2018-12-08T00:43:32.072Z,51.74
2018-12-08T00:44:32.310Z,51.73
2018-12-08T00:45:32.312Z,51.74
2018-12-08T00:46:32.333Z,51.75
2018-12-08T00:47:32.614Z,51.74
2018-12-08T00:48:32.034Z,51.7
2018-12-08T00:49:32.296Z,51.73
2018-12-08T00:50:32.200Z,51.74
2018-12-08T00:51:32.559Z,51.7
2018-12-08T00:52:32.616Z,51.77
2018-12-08T00:53:32.493Z,51.76
2018-12-08T00:54:32.527Z,51.78
2018-12-08T00:55:32.504Z,51.79
2018-12-08T00:56:32.227Z,51.81
2018-12-08T00:57:32.038Z,51.74
2018-12-08T00:58:32.465Z,51.76
2018-12-08T00:59:32.450Z,51.8
2018-12-08T01:00:32.144Z,51.77
2018-12-08T01:01:32.476Z,51.74
2018-12-08T01:02:32.078Z,51.75
2018-12-08T01:03:32.272Z,51.78
2018-12-08T01:04:32.022Z,51.74
2018-12-08T01:05:32.391Z,51.76
2018-12-08T01:06:32.172Z,51.75
2018-12-08T01:07:32.204Z,51.8
2018-12-08T01:08:33.076Z,51.78
2018-12-08T01:09:32.833Z,51.77
2018-12-08T01:10:32.626Z,51.78
2018-12-08T01:11:32.469Z,51.8
2018-12-08T01:12:32.508Z,51.78
2018-12-08T01:13:32.507Z,51.77
2018-12-08T01:14:32.234Z,51.81
2018-12-08T01:15:32.250Z,51.78
2018-12-08T01:16:32.613Z,51.77
2018-12-08T01:17:32.503Z,51.8
2018-12-08T01:18:32.562Z,51.78
2018-12-08T01:19:32.331Z,51.78
2018-12-08T01:20:32.514Z,51.8
2018-12-08T01:21:32.280Z,51.8
2018-12-08T01:22:32.278Z,51.78
2018-12-08T01:23:32.276Z,51.81
2018-12-08T01:24:32.947Z,51.82
2018-12-08T01:25:32.745Z,51.78
2018-12-08T01:26:32.147Z,51.82
2018-12-08T01:27:32.037Z,51.81
2018-12-08T01:28:32.573Z,51.79
2018-12-08T01:29:33.015Z,51.81
2018-12-08T01:30:32.131Z,51.83
2018-12-08T01:31:32.238Z,51.75
2018-12-08T01:32:32.381Z,51.84
2018-12-08T01:33:32.019Z,51.84
2018-12-08T01:34:32.323Z,51.83
2018-12-08T01:35:32.410Z,51.8
2018-12-08T01:36:32.525Z,51.8
2018-12-08T01:37:32.282Z,51.85
2018-12-08T01:38:32.345Z,51.87
2018-12-08T01:39:32.301Z,51.78
2018-12-08T01:40:32.519Z,51.85
2018-12-08T01:41:32.023Z,51.81
2018-12-08T01:42:32.159Z,51.81
2018-12-08T01:43:32.400Z,51.87
2018-12-08T01:44:32.237Z,51.83
2018-12-08T01:45:32.317Z,51.86
2018-12-08T01:46:32.166Z,51.87
2018-12-08T01:47:32.168Z,51.81
2018-12-08T01:48:32.043Z,51.85
2018-12-08T01:49:32.495Z,51.81
2018-12-08T01:50:32.269Z,51.82
2018-12-08T01:51:32.582Z,51.81
2018-12-08T01:52:32.268Z,51.83
2018-12-08T01:53:32.032Z,51.85
2018-12-08T01:54:32.433Z,51.84
2018-12-08T01:55:32.410Z,51.83
2018-12-08T01:56:32.189Z,51.87
2018-12-08T01:57:32.342Z,51.85
2018-12-08T01:58:32.436Z,51.85
2018-12-08T01:59:32.302Z,51.87
2018-12-08T02:00:32.078Z,51.83
2018-12-08T02:01:32.127Z,51.85
2018-12-08T02:02:32.003Z,51.87
2018-12-08T02:03:32.138Z,51.88
2018-12-08T02:04:32.353Z,51.83
2018-12-08T02:05:32.059Z,51.86
2018-12-08T02:06:32.293Z,51.86
2018-12-08T02:07:32.099Z,51.8
2018-12-08T02:08:32.173Z,51.87
2018-12-08T02:09:32.030Z,51.88
2018-12-08T02:10:32.373Z,51.87
2018-12-08T02:11:32.257Z,51.86
2018-12-08T02:12:32.447Z,51.86
2018-12-08T02:13:32.262Z,51.93
2018-12-08T02:14:32.212Z,51.84
2018-12-08T02:15:32.242Z,51.93
2018-12-08T02:16:32.076Z,51.88
2018-12-08T02:17:32.734Z,51.9
2018-12-08T02:18:32.014Z,51.87
2018-12-08T02:19:32.630Z,51.89
2018-12-08T02:20:32.282Z,51.87
2018-12-08T02:21:32.289Z,51.85
2018-12-08T02:22:32.512Z,51.83
2018-12-08T02:23:32.036Z,51.85
2018-12-08T02:24:32.512Z,51.87
2018-12-08T02:25:32.318Z,51.87
2018-12-08T02:26:32.065Z,51.84
2018-12-08T02:27:32.228Z,51.88
2018-12-08T02:28:32.220Z,51.89
2018-12-08T02:29:32.730Z,51.89
2018-12-08T02:30:32.760Z,51.89
2018-12-08T02:31:32.199Z,51.85
2018-12-08T02:32:32.611Z,51.89
2018-12-08T02:33:32.094Z,51.85
2018-12-08T02:34:32.243Z,51.85
2018-12-08T02:35:32.119Z,51.85
2018-12-08T02:36:32.961Z,51.89
2018-12-08T02:37:32.071Z,51.89
2018-12-08T02:38:32.154Z,51.92
2018-12-08T02:39:32.443Z,51.89
2018-12-08T02:40:32.557Z,51.92
2018-12-08T02:41:32.347Z,51.89
2018-12-08T02:42:32.521Z,51.84
2018-12-08T02:43:32.236Z,51.86
2018-12-08T02:44:32.097Z,51.89
2018-12-08T02:45:32.026Z,51.85
2018-12-08T02:46:33.242Z,51.86
2018-12-08T02:47:32.504Z,51.85
2018-12-08T02:48:32.517Z,51.83
2018-12-08T02:49:32.328Z,51.85
2018-12-08T02:50:32.215Z,51.85
2018-12-08T02:51:32.042Z,51.85
2018-12-08T02:52:32.342Z,51.86
2018-12-08T02:53:32.857Z,51.85
2018-12-08T02:54:32.125Z,51.87
2018-12-08T02:55:32.451Z,51.84
2018-12-08T02:56:32.327Z,51.91
2018-12-08T02:57:32.508Z,51.88
2018-12-08T02:58:32.211Z,51.9
2018-12-08T02:59:32.240Z,51.87
2018-12-08T03:00:32.482Z,51.86
2018-12-08T03:01:32.214Z,51.88
2018-12-08T03:02:32.268Z,51.89
2018-12-08T03:03:32.012Z,51.85
2018-12-08T03:04:32.566Z,51.9
2018-12-08T03:05:32.872Z,51.94
2018-12-08T03:06:32.312Z,51.88
2018-12-08T03:07:32.330Z,51.87
2018-12-08T03:08:32.201Z,51.89
2018-12-08T03:09:32.110Z,51.9
2018-12-08T03:10:32.051Z,51.88
2018-12-08T03:11:32.164Z,51.89
2018-12-08T03:12:32.161Z,51.89
2018-12-08T03:13:32.416Z,51.88
2018-12-08T03:14:32.131Z,51.82
2018-12-08T03:15:32.116Z,51.92
2018-12-08T03:16:32.058Z,51.88
2018-12-08T03:17:32.716Z,51.89
2018-12-08T03:18:32.220Z,51.91
2018-12-08T03:19:32.365Z,51.86
2018-12-08T03:20:33.042Z,51.86
2018-12-08T03:21:32.414Z,51.91
2018-12-08T03:22:32.157Z,51.92
2018-12-08T03:23:32.118Z,51.9
2018-12-08T03:24:32.256Z,51.93
2018-12-08T03:25:32.035Z,51.86
2018-12-08T03:26:32.261Z,51.85
2018-12-08T03:27:32.448Z,51.93
2018-12-08T03:28:32.067Z,51.89
2018-12-08T03:29:32.149Z,51.83
2018-12-08T03:30:32.172Z,51.88
2018-12-08T03:31:32.803Z,51.91
2018-12-08T03:32:32.248Z,51.91
2018-12-08T03:33:32.080Z,51.87
2018-12-08T03:34:32.536Z,51.87
2018-12-08T03:35:32.196Z,51.86
2018-12-08T03:36:32.278Z,51.87
2018-12-08T03:37:32.044Z,51.9
2018-12-08T03:38:32.236Z,51.86
2018-12-08T03:39:32.073Z,51.94
2018-12-08T03:40:32.264Z,51.9
2018-12-08T03:41:32.347Z,51.87
2018-12-08T03:42:32.255Z,51.87
2018-12-08T03:43:32.209Z,51.89
2018-12-08T03:44:32.040Z,51.89
2018-12-08T03:45:32.205Z,51.92
2018-12-08T03:46:32.011Z,51.89
2018-12-08T03:47:32.227Z,51.89
2018-12-08T03:48:31.985Z,51.96
2018-12-08T03:49:32.216Z,51.89
2018-12-08T03:50:32.475Z,51.89
2018-12-08T03:51:32.041Z,51.91
2018-12-08T03:52:32.358Z,51.88
2018-12-08T03:53:32.118Z,51.93
2018-12-08T03:54:32.149Z,51.92
2018-12-08T03:55:32.187Z,51.91
2018-12-08T03:56:32.209Z,51.91
2018-12-08T03:57:31.972Z,51.93
2018-12-08T03:58:32.179Z,51.87
2018-12-08T03:59:32.451Z,51.96
2018-12-08T04:00:32.307Z,51.9
2018-12-08T04:01:32.486Z,51.91
2018-12-08T04:02:32.387Z,51.86
2018-12-08T04:03:32.113Z,51.87
2018-12-08T04:04:32.309Z,51.91
2018-12-08T04:05:32.002Z,51.9
2018-12-08T04:06:32.301Z,51.93
2018-12-08T04:07:32.117Z,51.92
2018-12-08T04:08:32.054Z,51.88
2018-12-08T04:09:32.445Z,51.89
2018-12-08T04:10:32.367Z,51.93
2018-12-08T04:11:32.208Z,51.91
2018-12-08T04:12:31.983Z,51.87
2018-12-08T04:13:32.285Z,51.89
2018-12-08T04:14:32.376Z,51.92
2018-12-08T04:15:32.151Z,51.94
2018-12-08T04:16:32.858Z,51.91
2018-12-08T04:17:32.132Z,51.93
2018-12-08T04:18:32.487Z,51.88
2018-12-08T04:19:31.931Z,51.94
2018-12-08T04:20:32.143Z,51.91
2018-12-08T04:21:32.014Z,51.94
2018-12-08T04:22:32.181Z,51.89
2018-12-08T04:23:32.230Z,51.94
2018-12-08T04:24:32.737Z,51.96
2018-12-08T04:25:32.347Z,51.9
2018-12-08T04:26:32.238Z,51.87
2018-12-08T04:27:32.420Z,51.89
2018-12-08T04:28:32.433Z,51.89
2018-12-08T04:29:32.384Z,51.91
2018-12-08T04:30:32.602Z,51.93
2018-12-08T04:31:32.108Z,51.91
2018-12-08T04:32:32.273Z,51.96
2018-12-08T04:33:31.954Z,51.92
2018-12-08T04:34:32.967Z,51.89
2018-12-08T04:35:32.293Z,51.9
2018-12-08T04:36:32.137Z,51.98
2018-12-08T04:37:31.943Z,51.91
2018-12-08T04:38:32.149Z,51.92
2018-12-08T04:39:32.355Z,51.94
2018-12-08T04:40:32.163Z,51.92
2018-12-08T04:41:32.209Z,51.92
2018-12-08T04:42:32.833Z,51.96
2018-12-08T04:43:32.273Z,51.89
2018-12-08T04:44:32.434Z,51.9
2018-12-08T04:45:32.204Z,51.94
2018-12-08T04:46:32.056Z,51.93
2018-12-08T04:47:32.124Z,51.93
2018-12-08T04:48:32.211Z,51.89
2018-12-08T04:49:32.092Z,51.88
2018-12-08T04:50:32.226Z,51.88
2018-12-08T04:51:31.953Z,51.94
2018-12-08T04:52:32.325Z,51.98
2018-12-08T04:53:32.189Z,51.93
2018-12-08T04:54:32.061Z,51.94
2018-12-08T04:55:32.210Z,51.88
2018-12-08T04:56:32.075Z,51.93
2018-12-08T04:57:32.885Z,51.88
2018-12-08T04:58:32.084Z,51.86
2018-12-08T04:59:32.205Z,51.84
2018-12-08T05:00:31.934Z,51.82
2018-12-08T05:01:32.612Z,51.8
2018-12-08T05:02:32.314Z,51.78
2018-12-08T05:03:32.315Z,51.8
2018-12-08T05:04:32.117Z,51.73
2018-12-08T05:05:32.448Z,51.73
2018-12-08T05:06:32.343Z,51.67
2018-12-08T05:07:32.063Z,51.72
2018-12-08T05:08:32.216Z,51.62
2018-12-08T05:09:32.356Z,51.63
2018-12-08T05:10:32.097Z,51.63
2018-12-08T05:11:32.337Z,51.6
2018-12-08T05:12:32.604Z,51.67
2018-12-08T05:13:32.190Z,51.53
2018-12-08T05:14:32.084Z,51.55
2018-12-08T05:15:32.461Z,51.56
2018-12-08T05:16:32.304Z,51.48
2018-12-08T05:17:32.066Z,51.59
2018-12-08T05:18:32.831Z,51.58
2018-12-08T05:19:32.136Z,51.54
2018-12-08T05:20:32.464Z,51.47
2018-12-08T05:21:32.028Z,51.61
2018-12-08T05:22:32.258Z,51.56
2018-12-08T05:23:31.962Z,51.59
2018-12-08T05:24:32.201Z,51.45
2018-12-08T05:25:32.046Z,51.58
2018-12-08T05:26:32.059Z,51.56
2018-12-08T05:27:32.013Z,51.52
2018-12-08T05:28:32.077Z,51.61
2018-12-08T05:29:32.257Z,51.56
2018-12-08T05:30:32.057Z,51.64
2018-12-08T05:31:32.194Z,51.64
2018-12-08T05:32:32.066Z,51.67
2018-12-08T05:33:32.014Z,51.51
2018-12-08T05:34:32.220Z,51.55
2018-12-08T05:35:32.107Z,51.64
2018-12-08T05:36:31.916Z,51.64
2018-12-08T05:37:32.390Z,51.62
2018-12-08T05:38:32.602Z,51.67
2018-12-08T05:39:32.201Z,51.57
2018-12-08T05:40:31.960Z,51.68
2018-12-08T05:41:32.250Z,51.62
2018-12-08T05:42:32.222Z,51.64
2018-12-08T05:43:32.187Z,51.6
2018-12-08T05:44:32.060Z,51.63
2018-12-08T05:45:32.410Z,51.6
2018-12-08T05:46:32.133Z,51.65
2018-12-08T05:47:32.358Z,51.63
2018-12-08T05:48:32.201Z,51.62
2018-12-08T05:49:32.577Z,51.59
2018-12-08T05:50:32.467Z,51.61
2018-12-08T05:51:32.094Z,51.62
2018-12-08T05:52:32.137Z,51.56
2018-12-08T05:53:32.011Z,51.58
2018-12-08T05:54:32.369Z,51.67
2018-12-08T05:55:31.824Z,51.62
2018-12-08T05:56:32.065Z,51.68
2018-12-08T05:57:32.156Z,51.61
2018-12-08T05:58:31.998Z,51.56
2018-12-08T05:59:32.188Z,51.61
2018-12-08T06:00:32.114Z,51.61
2018-12-08T06:01:32.292Z,51.54
2018-12-08T06:02:32.259Z,51.6
2018-12-08T06:03:32.131Z,51.56
2018-12-08T06:04:32.267Z,51.5
2018-12-08T06:05:31.972Z,51.58
2018-12-08T06:06:32.099Z,51.66
2018-12-08T06:07:31.950Z,51.57
2018-12-08T06:08:32.067Z,51.62
2018-12-08T06:09:32.268Z,51.55
2018-12-08T06:10:32.063Z,51.59
2018-12-08T06:11:32.270Z,51.59
2018-12-08T06:12:32.285Z,51.59
2018-12-08T06:13:32.143Z,51.59
2018-12-08T06:14:32.337Z,51.58
2018-12-08T06:15:32.061Z,51.61
2018-12-08T06:16:31.926Z,51.59
2018-12-08T06:17:32.060Z,51.51
2018-12-08T06:18:32.568Z,51.57
2018-12-08T06:19:32.281Z,51.57
2018-12-08T06:20:32.547Z,51.61
2018-12-08T06:21:32.034Z,51.56
2018-12-08T06:22:32.330Z,51.6
2018-12-08T06:23:32.186Z,51.55
2018-12-08T06:24:32.778Z,51.55
2018-12-08T06:25:32.143Z,51.51
2018-12-08T06:26:31.993Z,51.48
2018-12-08T06:27:32.137Z,51.57
2018-12-08T06:28:32.402Z,51.52
2018-12-08T06:29:32.050Z,51.51
2018-12-08T06:30:32.227Z,51.5
2018-12-08T06:31:32.096Z,51.52
2018-12-08T06:32:32.334Z,51.5
2018-12-08T06:33:31.991Z,51.51
2018-12-08T06:34:32.561Z,51.55
2018-12-08T06:35:32.127Z,51.49
2018-12-08T06:36:32.073Z,51.52
2018-12-08T06:37:32.215Z,51.52
2018-12-08T06:38:32.339Z,51.48
2018-12-08T06:39:32.793Z,51.56
2018-12-08T06:40:32.450Z,51.48
2018-12-08T06:41:32.332Z,51.48
2018-12-08T06:42:32.138Z,51.47
2018-12-08T06:43:32.151Z,51.41
2018-12-08T06:44:32.150Z,51.53
2018-12-08T06:45:32.333Z,51.47
2018-12-08T06:46:32.553Z,51.47
2018-12-08T06:47:32.944Z,51.49
2018-12-08T06:48:32.157Z,51.48
2018-12-08T06:49:32.326Z,51.48
2018-12-08T06:50:32.022Z,51.46
2018-12-08T06:51:32.056Z,51.48
2018-12-08T06:52:32.145Z,51.4
2018-12-08T06:53:32.093Z,51.41
2018-12-08T06:54:32.057Z,51.41
2018-12-08T06:55:32.061Z,51.42
2018-12-08T06:56:32.564Z,51.43
2018-12-08T06:57:31.926Z,51.39
2018-12-08T06:58:32.070Z,51.39
2018-12-08T06:59:31.880Z,51.39
2018-12-08T07:00:32.019Z,51.43
2018-12-08T07:01:32.206Z,51.36
2018-12-08T07:02:31.924Z,51.4
2018-12-08T07:03:32.140Z,51.35
2018-12-08T07:04:31.948Z,51.39
2018-12-08T07:05:32.041Z,51.4
2018-12-08T07:06:33.623Z,51.39
2018-12-08T07:07:32.110Z,51.35
2018-12-08T07:08:32.104Z,51.33
2018-12-08T07:09:31.913Z,51.3
2018-12-08T07:10:32.174Z,51.31
2018-12-08T07:11:32.048Z,51.32
2018-12-08T07:12:32.041Z,51.28
2018-12-08T07:13:32.195Z,51.31
2018-12-08T07:14:32.059Z,51.24
2018-12-08T07:15:31.979Z,51.31
2018-12-08T07:16:31.982Z,51.3
2018-12-08T07:17:32.402Z,51.3
2018-12-08T07:18:32.131Z,51.32
2018-12-08T07:19:32.080Z,51.26
2018-12-08T07:20:32.260Z,51.28
2018-12-08T07:21:32.141Z,51.26
2018-12-08T07:22:31.881Z,51.28
2018-12-08T07:23:32.441Z,51.25
2018-12-08T07:24:31.942Z,51.21
2018-12-08T07:25:32.056Z,51.21
2018-12-08T07:26:32.271Z,51.26
2018-12-08T07:27:31.862Z,51.25
2018-12-08T07:28:32.272Z,51.23
2018-12-08T07:29:32.092Z,51.24
2018-12-08T07:30:31.953Z,51.25
2018-12-08T07:31:33.021Z,51.2
2018-12-08T07:32:39.412Z,51.17
2018-12-08T07:33:31.922Z,51.16
2018-12-08T07:34:32.539Z,51.17
2018-12-08T07:35:32.221Z,51.16
2018-12-08T07:36:32.225Z,51.17
2018-12-08T07:37:32.224Z,51.18
2018-12-08T07:38:32.046Z,51.16
2018-12-08T07:39:32.243Z,51.17
2018-12-08T07:40:32.090Z,51.19
2018-12-08T07:41:32.167Z,51.14
2018-12-08T07:42:32.482Z,51.13
2018-12-08T07:43:31.994Z,51.15
2018-12-08T07:44:32.339Z,51.12
2018-12-08T07:45:32.486Z,51.11
2018-12-08T07:46:32.313Z,51.11
2018-12-08T07:47:32.005Z,51.08
2018-12-08T07:48:32.127Z,51.11
2018-12-08T07:49:31.985Z,51.1
2018-12-08T07:50:32.024Z,51.1
2018-12-08T07:51:31.863Z,51.04
2018-12-08T07:52:32.127Z,51.07
2018-12-08T07:53:32.135Z,51.04
2018-12-08T07:54:32.309Z,51.04
2018-12-08T07:55:32.473Z,51.02
2018-12-08T07:56:32.258Z,51.05
2018-12-08T07:57:32.000Z,51.02
2018-12-08T07:58:31.878Z,51.02
2018-12-08T07:59:32.062Z,51.02
2018-12-08T08:00:33.265Z,51
2018-12-08T08:01:32.286Z,51.05
2018-12-08T08:02:32.670Z,51.02
2018-12-08T08:03:32.224Z,51.02
2018-12-08T08:04:32.073Z,51.07
2018-12-08T08:05:32.333Z,51.03
2018-12-08T08:06:32.140Z,51.01
2018-12-08T08:07:32.074Z,51.01
2018-12-08T08:08:32.266Z,50.99
2018-12-08T08:09:32.153Z,50.97
2018-12-08T08:10:32.097Z,51
2018-12-08T08:11:32.083Z,51.02
2018-12-08T08:12:31.983Z,51.01
2018-12-08T08:13:32.048Z,51.02
2018-12-08T08:14:32.028Z,50.99
2018-12-08T08:15:32.423Z,50.98
2018-12-08T08:16:32.229Z,51.02
2018-12-08T08:17:32.077Z,50.95
2018-12-08T08:18:32.122Z,50.97
2018-12-08T08:19:32.248Z,50.94
2018-12-08T08:20:32.236Z,50.95
2018-12-08T08:21:31.937Z,50.96
2018-12-08T08:22:32.105Z,50.94
2018-12-08T08:23:31.967Z,50.95
2018-12-08T08:24:32.321Z,50.93
2018-12-08T08:25:33.239Z,50.91
2018-12-08T08:26:32.478Z,50.93
2018-12-08T08:27:32.262Z,50.95
2018-12-08T08:28:32.065Z,50.96
2018-12-08T08:29:32.182Z,50.9
2018-12-08T08:30:31.893Z,50.92
2018-12-08T08:31:32.983Z,50.89
2018-12-08T08:32:31.951Z,50.87
2018-12-08T08:33:31.954Z,50.91
2018-12-08T08:34:32.050Z,50.88
2018-12-08T08:35:32.298Z,50.92
2018-12-08T08:36:32.346Z,50.92
2018-12-08T08:37:31.978Z,50.91
2018-12-08T08:38:32.057Z,50.88
2018-12-08T08:39:31.971Z,50.88
2018-12-08T08:40:32.127Z,50.86
2018-12-08T08:41:31.910Z,50.84
2018-12-08T08:42:32.067Z,50.84
2018-12-08T08:43:31.928Z,50.84
2018-12-08T08:44:31.936Z,50.81
2018-12-08T08:45:32.073Z,50.86
2018-12-08T08:46:32.069Z,50.83
2018-12-08T08:47:32.591Z,50.78
2018-12-08T08:48:31.884Z,50.79
2018-12-08T08:49:32.122Z,50.82
2018-12-08T08:50:31.998Z,50.82
2018-12-08T08:51:32.023Z,50.81
2018-12-08T08:52:32.009Z,50.75
2018-12-08T08:53:31.988Z,50.77
2018-12-08T08:54:32.138Z,50.75
2018-12-08T08:55:32.277Z,50.8
2018-12-08T08:56:32.092Z,50.77
2018-12-08T08:57:31.903Z,50.8
2018-12-08T08:58:32.389Z,50.81
2018-12-08T08:59:32.519Z,50.79
2018-12-08T09:00:32.258Z,50.78
2018-12-08T09:01:31.935Z,50.77
2018-12-08T09:02:32.222Z,50.78
2018-12-08T09:03:32.241Z,50.75
2018-12-08T09:04:31.913Z,50.75
2018-12-08T09:05:32.302Z,50.82
2018-12-08T09:06:32.380Z,50.8
2018-12-08T09:07:32.129Z,50.8
2018-12-08T09:08:32.062Z,50.79
2018-12-08T09:09:31.882Z,50.75
2018-12-08T09:10:32.116Z,50.76
2018-12-08T09:11:31.843Z,50.73
2018-12-08T09:12:32.294Z,50.8
2018-12-08T09:13:31.976Z,50.79
2018-12-08T09:14:32.039Z,50.75
2018-12-08T09:15:32.039Z,50.75
2018-12-08T09:16:32.382Z,50.75
2018-12-08T09:17:32.337Z,50.71
2018-12-08T09:18:31.985Z,50.77
2018-12-08T09:19:31.839Z,50.69
2018-12-08T09:20:31.907Z,50.77
2018-12-08T09:21:32.056Z,50.72
2018-12-08T09:22:32.051Z,50.65
2018-12-08T09:23:32.111Z,50.68
2018-12-08T09:24:32.301Z,50.74
2018-12-08T09:25:31.993Z,50.69
2018-12-08T09:26:32.060Z,50.71
2018-12-08T09:27:31.887Z,50.69
2018-12-08T09:28:32.222Z,50.69
2018-12-08T09:29:32.635Z,50.72
2018-12-08T09:30:32.232Z,50.7
2018-12-08T09:31:32.119Z,50.71
2018-12-08T09:32:32.081Z,50.69
2018-12-08T09:33:32.258Z,50.68
2018-12-08T09:34:32.242Z,50.72
2018-12-08T09:35:31.988Z,50.68
2018-12-08T09:36:32.275Z,50.65
2018-12-08T09:37:31.921Z,50.34
2018-12-08T09:38:32.402Z,50.1
2018-12-08T09:39:32.443Z,50.44
2018-12-08T09:40:32.014Z,50.48
2018-12-08T09:41:32.049Z,50.53
2018-12-08T09:42:32.108Z,50.54
2018-12-08T09:43:31.940Z,50.59
2018-12-08T09:44:31.925Z,50.58
2018-12-08T09:45:32.246Z,50.57
2018-12-08T09:46:31.985Z,50.62
2018-12-08T09:47:32.263Z,50.62
2018-12-08T09:48:32.276Z,50.58
2018-12-08T09:49:32.053Z,50.6
2018-12-08T09:50:32.244Z,50.56
2018-12-08T09:51:32.251Z,50.57
2018-12-08T09:52:32.262Z,50.6
2018-12-08T09:53:33.039Z,50.58
2018-12-08T09:54:31.979Z,50.55
2018-12-08T09:55:31.944Z,50.54
2018-12-08T09:56:32.077Z,50.56
2018-12-08T09:57:32.519Z,50.55
2018-12-08T09:58:32.130Z,50.58
2018-12-08T09:59:32.407Z,50.56
2018-12-08T10:00:32.117Z,50.62
2018-12-08T10:01:32.243Z,50.61
2018-12-08T10:02:31.903Z,50.6
2018-12-08T10:03:32.061Z,50.6
2018-12-08T10:04:31.707Z,50.64
2018-12-08T10:05:31.851Z,50.58
2018-12-08T10:06:32.198Z,50.59
2018-12-08T10:07:33.077Z,50.63
2018-12-08T10:08:32.073Z,50.59
2018-12-08T10:09:32.216Z,50.54
2018-12-08T10:10:32.019Z,50.55
2018-12-08T10:11:32.135Z,50.52
2018-12-08T10:12:32.183Z,50.61
2018-12-08T10:13:32.432Z,50.53
2018-12-08T10:14:31.986Z,50.53
2018-12-08T10:15:31.832Z,50.57
2018-12-08T10:16:32.061Z,50.51
2018-12-08T10:17:32.007Z,50.55
2018-12-08T10:18:31.861Z,50.55
2018-12-08T10:19:32.105Z,50.5
2018-12-08T10:20:31.879Z,50.47
2018-12-08T10:21:32.026Z,50.49
2018-12-08T10:22:31.791Z,50.49
2018-12-08T10:23:32.022Z,50.43
2018-12-08T10:24:32.264Z,50.42
2018-12-08T10:25:32.117Z,50.46
2018-12-08T10:26:32.181Z,50.52
2018-12-08T10:27:31.872Z,50.51
2018-12-08T10:28:31.965Z,50.49
2018-12-08T10:29:32.093Z,50.43
2018-12-08T10:30:31.932Z,50.44
2018-12-08T10:31:31.813Z,50.43
2018-12-08T10:32:31.808Z,50.44
2018-12-08T10:33:31.940Z,50.45
2018-12-08T10:34:31.897Z,50.45
2018-12-08T10:35:32.335Z,50.44
2018-12-08T10:36:32.230Z,50.48
2018-12-08T10:37:31.924Z,50.42
2018-12-08T10:38:31.970Z,50.49
2018-12-08T10:39:32.043Z,50.45
2018-12-08T10:40:31.792Z,50.51
2018-12-08T10:41:32.061Z,50.48
2018-12-08T10:42:31.975Z,50.47
2018-12-08T10:43:32.280Z,50.48
2018-12-08T10:44:32.019Z,50.47
2018-12-08T10:45:32.395Z,50.48
2018-12-08T10:46:31.855Z,50.52
2018-12-08T10:47:32.365Z,50.48
2018-12-08T10:48:31.827Z,50.53
2018-12-08T10:49:32.044Z,50.47
2018-12-08T10:50:32.288Z,50.5
2018-12-08T10:51:32.300Z,50.43
2018-12-08T10:52:32.122Z,50.62
2018-12-08T10:53:31.934Z,50.49
2018-12-08T10:54:32.086Z,50.46
2018-12-08T10:55:32.093Z,50.3
2018-12-08T10:56:32.190Z,50.05
2018-12-08T10:57:32.186Z,49.5
2018-12-08T10:58:32.691Z,49.29
2018-12-08T10:59:31.905Z,49.11
2018-12-08T11:00:32.230Z,49.13
2018-12-08T11:01:32.429Z,48.92
2018-12-08T11:02:32.021Z,49.15
2018-12-08T11:03:31.832Z,49.16
2018-12-08T11:04:32.283Z,49.11
2018-12-08T11:05:31.890Z,49.19
2018-12-08T11:06:32.376Z,49.17
2018-12-08T11:07:32.322Z,49.22
2018-12-08T11:08:32.109Z,49.32
2018-12-08T11:09:32.221Z,49.13
2018-12-08T11:10:32.149Z,49.19
2018-12-08T11:11:32.289Z,49.36
2018-12-08T11:12:31.926Z,49.23
2018-12-08T11:13:32.305Z,49.22
2018-12-08T11:14:32.070Z,49.81
2018-12-08T11:15:32.222Z,49.43
2018-12-08T11:16:31.835Z,49.47
2018-12-08T11:17:31.921Z,49.58
2018-12-08T11:18:32.030Z,49.34
2018-12-08T11:19:32.247Z,49.77
2018-12-08T11:20:31.935Z,49.4
2018-12-08T11:21:32.309Z,49.45
2018-12-08T11:22:31.973Z,49.38
2018-12-08T11:23:32.150Z,49.58
2018-12-08T11:24:32.894Z,49.7
2018-12-08T11:25:32.710Z,49.54
2018-12-08T11:26:32.453Z,49.52
2018-12-08T11:27:31.842Z,49.57
2018-12-08T11:28:32.026Z,49.53
2018-12-08T11:29:31.842Z,49.57
2018-12-08T11:30:32.055Z,49.65
2018-12-08T11:31:31.849Z,49.89
2018-12-08T11:32:32.188Z,50.37
2018-12-08T11:33:32.163Z,50.37
2018-12-08T11:34:31.949Z,50.36
2018-12-08T11:35:32.255Z,49.88
2018-12-08T11:36:32.095Z,49.98
2018-12-08T11:37:32.388Z,49.98
2018-12-08T11:38:31.939Z,49.89
2018-12-08T11:39:32.049Z,49.83
2018-12-08T11:40:32.076Z,49.86
2018-12-08T11:41:31.938Z,49.91
2018-12-08T11:42:32.226Z,49.8
2018-12-08T11:43:31.866Z,49.78
2018-12-08T11:44:31.981Z,49.91
2018-12-08T11:45:32.455Z,49.67
2018-12-08T11:46:32.396Z,49.45
2018-12-08T11:47:32.297Z,49.45
2018-12-08T11:48:32.165Z,49.49
2018-12-08T11:49:32.057Z,49.57
2018-12-08T11:50:32.226Z,49.55
2018-12-08T11:51:32.135Z,49.96
2018-12-08T11:52:32.025Z,49.71
2018-12-08T11:53:32.033Z,49.77
2018-12-08T11:54:31.876Z,49.74
2018-12-08T11:55:31.795Z,49.72
2018-12-08T11:56:31.935Z,49.71
2018-12-08T11:57:32.538Z,49.76
2018-12-08T11:58:31.828Z,49.75
2018-12-08T11:59:32.081Z,49.7
2018-12-08T12:00:31.823Z,49.74
2018-12-08T12:01:31.786Z,49.73
2018-12-08T12:02:32.144Z,49.75
2018-12-08T12:03:31.907Z,49.8
2018-12-08T12:04:31.960Z,49.81
2018-12-08T12:05:31.835Z,49.8
2018-12-08T12:06:31.985Z,49.8
2018-12-08T12:07:31.857Z,49.83
2018-12-08T12:08:31.875Z,49.79
2018-12-08T12:09:31.757Z,49.82
2018-12-08T12:10:31.799Z,49.83
2018-12-08T12:11:32.090Z,49.78
2018-12-08T12:12:31.806Z,49.8
2018-12-08T12:13:32.006Z,49.78
2018-12-08T12:14:32.123Z,49.79
2018-12-08T12:15:31.912Z,49.8
2018-12-08T12:16:32.034Z,49.77
2018-12-08T12:17:31.888Z,49.72
2018-12-08T12:18:32.087Z,49.74
2018-12-08T12:19:32.078Z,49.73
2018-12-08T12:20:31.948Z,49.74
2018-12-08T12:21:31.956Z,49.73
2018-12-08T12:22:31.882Z,49.81
2018-12-08T12:23:32.036Z,49.77
2018-12-08T12:24:32.114Z,49.76
2018-12-08T12:25:32.031Z,49.77
2018-12-08T12:26:32.132Z,49.83
2018-12-08T12:27:31.937Z,49.93
2018-12-08T12:28:31.668Z,49.97
2018-12-08T12:29:32.177Z,50
2018-12-08T12:30:32.263Z,50.04
2018-12-08T12:31:32.305Z,50.07
2018-12-08T12:32:32.106Z,50.04
2018-12-08T12:33:32.330Z,50.09
2018-12-08T12:34:32.841Z,50.15
2018-12-08T12:35:31.969Z,50.12
2018-12-08T12:36:32.111Z,50.14
2018-12-08T12:37:31.967Z,50.15
2018-12-08T12:38:31.826Z,50.16
2018-12-08T12:39:31.989Z,50.2
2018-12-08T12:40:32.265Z,50.21
2018-12-08T12:41:32.118Z,50.17
2018-12-08T12:42:32.361Z,50.18
2018-12-08T12:43:32.027Z,50.18
2018-12-08T12:44:32.245Z,50.22
2018-12-08T12:45:32.275Z,50.25
2018-12-08T12:46:32.207Z,50.18
2018-12-08T12:47:31.875Z,50.23
2018-12-08T12:48:32.295Z,50.2
2018-12-08T12:49:31.930Z,50.19
2018-12-08T12:50:31.844Z,50.21
2018-12-08T12:51:32.081Z,50.25
2018-12-08T12:52:32.246Z,50.23
2018-12-08T12:53:31.901Z,50.22
2018-12-08T12:54:32.093Z,50.23
2018-12-08T12:55:32.694Z,50.22